Search for airport 
image banner adimage banner adimage banner ad
image banner ad

CA43 - Barton Memorial Hospital

Located in South Lake Tahoe, United States

ICAO - CA43, IATA -

Data provided by Airmate  

General information

Coordinates: N38°54'41" W119°59'49"
Elevation is 6298 feet MSL.
Magnetic variation is 16° East
View others Airports in California

Operational data

Special qualification required
Current time UTC:
Current local time:
Weather at : KTVL - Lake Tahoe ( 2 km )
METAR: KTVL 270453Z AUTO 17005KT 10SM OVC100 18/06 A3025 RMK AO2 SLP169 T01830056
TAF: KTVL 262341Z 2700/2724 18010KT P6SM VCTS SCT060 BKN100CB TEMPO 2700/2703 VRB20G30KT 5SM -TSRA FEW050 BKN080CB FM270400 20008G16KT P6SM VCSH SCT050 BKN080 FM271000 19002KT 6SM HZ OVC100 FM272000 03008KT 5SM HZ SCT030 BKN050 BKN090
View NOTAMs / SUP AIP / TFR affecting this airport [VIEW]
Communications frequencies: [VIEW]

Runways:

Airport contact information

Address: South Lake Tahoe United States

Satellite view of CA43